createdAt,value
2018-08-19T00:01:14.458Z,73.70
2018-08-19T00:03:50.382Z,74.20
2018-08-19T00:06:26.237Z,73.68
2018-08-19T00:09:07.075Z,75.41
2018-08-19T00:11:44.058Z,77.07
2018-08-19T00:14:29.750Z,77.44
2018-08-19T00:17:06.266Z,76.57
2018-08-19T00:19:42.438Z,75.48
2018-08-19T00:22:18.341Z,74.69
2018-08-19T00:24:54.288Z,74.39
2018-08-19T00:27:30.049Z,73.86
2018-08-19T00:30:10.400Z,74.07
2018-08-19T00:32:46.254Z,75.51
2018-08-19T00:35:22.575Z,75.97
2018-08-19T00:37:58.834Z,75.80
2018-08-19T00:40:34.797Z,77.04
2018-08-19T00:43:10.576Z,77.83
2018-08-19T00:45:46.768Z,78.05
2018-08-19T00:48:22.537Z,78.47
2018-08-19T00:50:58.503Z,78.86
2018-08-19T00:53:34.408Z,78.59
2018-08-19T00:56:10.223Z,77.66
2018-08-19T00:58:46.018Z,77.51
2018-08-19T01:01:33.169Z,78.65
2018-08-19T01:04:10.391Z,78.76
2018-08-19T01:06:52.071Z,79.36
2018-08-19T01:09:30.729Z,78.74
2018-08-19T01:12:06.793Z,79.09
2018-08-19T01:14:42.757Z,78.58
2018-08-19T01:17:19.579Z,78.30
2018-08-19T01:19:59.327Z,77.50
2018-08-19T01:22:36.735Z,76.86
2018-08-19T01:25:14.485Z,75.59
2018-08-19T01:27:50.763Z,75.56
2018-08-19T01:30:27.279Z,76.10
2018-08-19T01:33:03.359Z,75.80
2018-08-19T01:35:40.937Z,76.88
2018-08-19T01:38:16.705Z,78.54
2018-08-19T01:40:52.412Z,80.14
2018-08-19T01:43:28.164Z,80.80
2018-08-19T01:46:03.936Z,81.27
2018-08-19T01:48:39.656Z,81.43
2018-08-19T01:51:15.361Z,81.90
2018-08-19T01:53:51.142Z,82.62
2018-08-19T01:56:26.777Z,81.23
2018-08-19T01:59:02.598Z,82.07
2018-08-19T02:01:52.048Z,82.57
2018-08-19T02:04:28.080Z,82.08
2018-08-19T02:07:04.064Z,83.24
2018-08-19T02:09:53.537Z,83.27
2018-08-19T02:12:38.438Z,83.33
2018-08-19T02:15:14.328Z,83.53
2018-08-19T02:18:11.827Z,83.20
2018-08-19T02:20:47.826Z,83.33
2018-08-19T02:23:23.869Z,83.63
2018-08-19T02:25:59.730Z,83.44
2018-08-19T02:28:35.680Z,82.73
2018-08-19T02:31:11.553Z,81.97
2018-08-19T02:33:47.165Z,84.20
2018-08-19T02:36:23.124Z,85.00
2018-08-19T02:38:59.016Z,84.18
2018-08-19T02:41:34.961Z,84.43
2018-08-19T02:44:10.697Z,84.37
2018-08-19T02:46:46.881Z,84.60
2018-08-19T02:49:22.719Z,83.89
2018-08-19T02:51:58.759Z,82.61
2018-08-19T02:54:34.690Z,82.71
2018-08-19T02:57:10.563Z,83.27
2018-08-19T02:59:46.517Z,83.78
2018-08-19T03:02:39.764Z,85.46
2018-08-19T03:05:16.009Z,86.66
2018-08-19T03:07:54.379Z,87.00
2018-08-19T03:10:30.814Z,86.80
2018-08-19T03:13:07.043Z,87.91
2018-08-19T03:15:42.912Z,87.29
2018-08-19T03:18:18.781Z,86.28
2018-08-19T03:20:54.637Z,86.95
2018-08-19T03:23:30.479Z,86.41
2018-08-19T03:26:06.656Z,85.90
2018-08-19T03:28:42.442Z,85.83
2018-08-19T03:31:18.190Z,87.76
2018-08-19T03:33:54.173Z,88.98
2018-08-19T03:36:29.951Z,89.21
2018-08-19T03:39:15.561Z,89.75
2018-08-19T03:41:51.167Z,89.51
2018-08-19T03:44:27.061Z,88.87
2018-08-19T03:47:05.774Z,89.12
2018-08-19T03:49:53.692Z,88.39
2018-08-19T03:52:29.589Z,85.75
2018-08-19T03:55:07.718Z,82.83
2018-08-19T03:57:43.675Z,84.00
2018-08-19T04:00:20.220Z,84.52
2018-08-19T04:02:56.029Z,86.41
2018-08-19T04:05:46.471Z,88.51
2018-08-19T04:08:23.158Z,90.36
2018-08-19T04:10:59.037Z,90.51
2018-08-19T04:13:38.175Z,90.41
2018-08-19T04:16:13.944Z,89.08
2018-08-19T04:18:49.744Z,87.66
2018-08-19T04:21:25.822Z,86.90
2018-08-19T04:24:01.462Z,85.70
2018-08-19T04:26:37.197Z,84.70
2018-08-19T04:29:17.052Z,84.01
2018-08-19T04:31:52.992Z,86.16
2018-08-19T04:34:28.879Z,85.78
2018-08-19T04:37:04.868Z,85.01
2018-08-19T04:39:40.507Z,85.39
2018-08-19T04:42:16.507Z,85.53
2018-08-19T04:44:52.917Z,84.42
2018-08-19T04:47:31.459Z,82.22
2018-08-19T04:50:07.309Z,81.05
2018-08-19T04:52:43.233Z,79.34
2018-08-19T04:55:19.108Z,78.03
2018-08-19T04:57:54.852Z,76.90
2018-08-19T05:00:31.813Z,75.19
2018-08-19T05:03:08.177Z,73.52
2018-08-19T05:05:43.908Z,73.44
2018-08-19T05:08:19.820Z,72.96
2018-08-19T05:10:55.693Z,71.88
2018-08-19T05:13:32.155Z,70.90
2018-08-19T05:16:08.015Z,70.78
2018-08-19T05:18:53.057Z,71.48
2018-08-19T05:21:28.932Z,73.44
2018-08-19T05:24:04.790Z,73.14
2018-08-19T05:26:40.578Z,73.31
2018-08-19T05:29:16.639Z,73.28
2018-08-19T05:31:56.333Z,72.40
2018-08-19T05:34:33.219Z,70.96
2018-08-19T05:37:08.852Z,69.02
2018-08-19T05:39:49.899Z,69.02
2018-08-19T05:42:25.752Z,70.45
2018-08-19T05:45:01.502Z,71.04
2018-08-19T05:47:37.451Z,70.27
2018-08-19T05:50:13.262Z,68.41
2018-08-19T05:52:49.208Z,66.49
2018-08-19T05:55:25.223Z,65.79
2018-08-19T05:58:01.233Z,64.95
2018-08-19T06:00:40.463Z,61.29
2018-08-19T06:03:16.099Z,61.50
2018-08-19T06:05:51.984Z,61.19
2018-08-19T06:08:27.842Z,61.71
2018-08-19T06:11:03.945Z,60.49
2018-08-19T06:13:39.752Z,59.38
2018-08-19T06:16:15.707Z,58.22
2018-08-19T06:18:54.031Z,57.42
2018-08-19T06:21:29.790Z,57.95
2018-08-19T06:24:05.549Z,57.02
2018-08-19T06:26:41.603Z,55.60
2018-08-19T06:29:17.336Z,53.24
2018-08-19T06:31:53.118Z,53.79
2018-08-19T06:34:29.012Z,52.94
2018-08-19T06:37:04.956Z,50.90
2018-08-19T06:39:40.844Z,50.11
2018-08-19T06:42:16.862Z,50.42
2018-08-19T06:44:52.745Z,50.77
2018-08-19T06:47:28.580Z,50.63
2018-08-19T06:50:12.205Z,51.13
2018-08-19T06:52:46.746Z,49.99
2018-08-19T06:55:18.245Z,50.45
2018-08-19T06:57:49.629Z,49.75
2018-08-19T07:00:28.557Z,49.35
2018-08-19T07:03:02.910Z,49.53
2018-08-19T07:05:34.989Z,48.30
2018-08-19T07:08:05.891Z,47.62
2018-08-19T07:10:38.264Z,47.89
2018-08-19T07:13:21.346Z,46.81
2018-08-19T07:15:52.138Z,46.66
2018-08-19T07:18:23.758Z,46.64
2018-08-19T07:20:54.552Z,47.00
2018-08-19T07:23:25.364Z,46.72
2018-08-19T07:25:56.182Z,45.44
2018-08-19T07:28:27.046Z,45.44
2018-08-19T07:30:57.848Z,45.58
2018-08-19T07:33:28.643Z,44.09
2018-08-19T07:35:59.485Z,44.85
2018-08-19T07:38:30.292Z,44.91
2018-08-19T07:41:01.772Z,44.60
2018-08-19T07:43:32.631Z,43.12
2018-08-19T07:46:03.403Z,41.92
2018-08-19T07:48:34.216Z,41.44
2018-08-19T07:51:05.069Z,40.48
2018-08-19T07:53:35.872Z,41.25
2018-08-19T07:56:07.052Z,40.70
2018-08-19T07:58:41.872Z,39.30
2018-08-19T08:01:12.622Z,36.82
2018-08-19T08:03:43.443Z,35.04
2018-08-19T08:06:14.612Z,32.83
2018-08-19T08:08:45.475Z,29.93
2018-08-19T08:11:16.266Z,31.64
2018-08-19T08:13:47.439Z,32.68
2018-08-19T08:16:18.423Z,27.67
2018-08-19T08:18:49.229Z,28.39
2018-08-19T08:21:20.075Z,27.62
2018-08-19T08:23:51.088Z,28.10
2018-08-19T08:26:21.980Z,26.59
2018-08-19T08:28:57.983Z,26.91
2018-08-19T08:31:28.862Z,28.46
2018-08-19T08:33:59.653Z,26.97
2018-08-19T08:36:30.432Z,27.17
2018-08-19T08:39:01.421Z,26.96
2018-08-19T08:41:32.297Z,27.60
2018-08-19T08:44:03.589Z,25.66
2018-08-19T08:46:34.509Z,25.00
2018-08-19T08:49:05.714Z,25.32
2018-08-19T08:51:36.523Z,24.98
2018-08-19T08:54:07.426Z,25.89
2018-08-19T08:56:41.138Z,26.92
2018-08-19T08:59:12.175Z,28.17
2018-08-19T09:01:42.961Z,27.91
2018-08-19T09:04:13.753Z,27.05
2018-08-19T09:06:44.544Z,27.24
2018-08-19T09:09:15.452Z,27.01
2018-08-19T09:11:46.680Z,26.61
2018-08-19T09:14:17.823Z,26.71
2018-08-19T09:16:48.629Z,23.64
2018-08-19T09:19:19.457Z,22.75
2018-08-19T09:21:53.603Z,22.04
2018-08-19T09:24:24.486Z,22.07
2018-08-19T09:26:55.377Z,21.93
2018-08-19T09:29:27.993Z,23.00
2018-08-19T09:31:58.831Z,22.19
2018-08-19T09:34:30.264Z,22.39
2018-08-19T09:37:01.757Z,22.61
2018-08-19T09:39:32.687Z,21.82
2018-08-19T09:42:08.320Z,22.26
2018-08-19T09:44:39.506Z,22.39
2018-08-19T09:47:10.465Z,23.08
2018-08-19T09:49:53.339Z,22.80
2018-08-19T09:52:24.092Z,22.95
2018-08-19T09:54:59.886Z,22.85
2018-08-19T09:57:30.782Z,22.19
2018-08-19T10:00:02.145Z,23.61
2018-08-19T10:02:37.697Z,23.29
2018-08-19T10:05:12.916Z,23.90
2018-08-19T10:07:43.709Z,24.42
2018-08-19T10:10:14.740Z,25.55
2018-08-19T10:12:45.865Z,26.91
2018-08-19T10:15:18.060Z,23.94
2018-08-19T10:17:48.956Z,23.62
2018-08-19T10:20:20.059Z,24.79
2018-08-19T10:22:53.467Z,22.87
2018-08-19T10:25:24.444Z,24.42
2018-08-19T10:27:56.581Z,24.70
2018-08-19T10:30:27.436Z,26.50
2018-08-19T10:33:04.631Z,27.32
2018-08-19T10:35:36.198Z,26.16
2018-08-19T10:38:06.990Z,26.63
2018-08-19T10:40:37.970Z,27.93
2018-08-19T10:43:10.453Z,27.80
2018-08-19T10:45:42.527Z,27.59
2018-08-19T10:48:14.582Z,27.01
2018-08-19T10:50:45.548Z,25.26
2018-08-19T10:53:21.774Z,26.76
2018-08-19T10:55:52.996Z,26.96
2018-08-19T10:58:24.220Z,26.84
2018-08-19T11:00:55.374Z,27.68
2018-08-19T11:03:27.042Z,27.14
2018-08-19T11:05:57.911Z,26.97
2018-08-19T11:08:28.763Z,27.10
2018-08-19T11:11:00.317Z,28.11
2018-08-19T11:13:32.328Z,27.78
2018-08-19T11:16:13.252Z,28.13
2018-08-19T11:18:45.340Z,29.28
2018-08-19T11:21:25.489Z,27.83
2018-08-19T11:23:57.327Z,28.34
2018-08-19T11:26:29.010Z,26.40
2018-08-19T11:29:00.784Z,29.32
2018-08-19T11:31:33.333Z,28.45
2018-08-19T11:34:07.617Z,26.94
2018-08-19T11:36:43.555Z,26.88
2018-08-19T11:39:15.898Z,27.47
2018-08-19T11:41:46.718Z,24.86
2018-08-19T11:44:18.211Z,23.55
2018-08-19T11:46:49.298Z,25.46
2018-08-19T11:49:20.759Z,27.55
2018-08-19T11:51:53.919Z,26.06
2018-08-19T11:54:26.643Z,26.40
2018-08-19T11:57:04.773Z,25.98
2018-08-19T11:59:44.692Z,26.92
2018-08-19T12:02:18.877Z,26.66
2018-08-19T12:04:49.815Z,27.57
2018-08-19T12:07:23.779Z,27.01
2018-08-19T12:10:01.384Z,30.70
2018-08-19T12:12:46.796Z,32.27
2018-08-19T12:15:17.834Z,34.38
2018-08-19T12:17:48.743Z,37.35
2018-08-19T12:20:28.392Z,36.86
2018-08-19T12:22:59.298Z,36.97
2018-08-19T12:25:30.305Z,38.10
2018-08-19T12:28:01.125Z,38.36
2018-08-19T12:30:32.755Z,38.19
2018-08-19T12:33:14.382Z,37.60
2018-08-19T12:35:45.161Z,37.89
2018-08-19T12:38:16.016Z,38.47
2018-08-19T12:40:48.717Z,38.04
2018-08-19T12:43:19.646Z,36.21
2018-08-19T12:45:50.585Z,36.33
2018-08-19T12:48:21.416Z,35.50
2018-08-19T12:50:59.212Z,33.80
2018-08-19T12:53:30.241Z,33.70
2018-08-19T12:56:03.639Z,35.36
2018-08-19T12:58:34.461Z,33.07
2018-08-19T13:01:05.249Z,32.28
2018-08-19T13:03:36.069Z,31.01
2018-08-19T13:06:08.057Z,32.06
2018-08-19T13:08:38.899Z,33.05
2018-08-19T13:11:10.094Z,34.23
2018-08-19T13:13:40.956Z,33.75
2018-08-19T13:16:11.751Z,33.54
2018-08-19T13:18:42.916Z,34.65
2018-08-19T13:21:16.618Z,33.72
2018-08-19T13:23:47.512Z,31.89
2018-08-19T13:26:18.342Z,31.62
2018-08-19T13:28:54.817Z,31.46
2018-08-19T13:31:29.688Z,29.55
2018-08-19T13:34:00.518Z,31.90
2018-08-19T13:36:31.623Z,32.09
2018-08-19T13:39:02.716Z,31.21
2018-08-19T13:41:33.602Z,30.72
2018-08-19T13:44:04.557Z,30.83
2018-08-19T13:46:35.477Z,30.26
2018-08-19T13:49:06.445Z,32.88
2018-08-19T13:51:37.237Z,32.83
2018-08-19T13:54:08.227Z,26.78
2018-08-19T13:56:39.315Z,27.18
2018-08-19T13:59:10.144Z,26.52
2018-08-19T14:01:40.946Z,22.13
2018-08-19T14:04:11.860Z,19.64
2018-08-19T14:06:44.277Z,19.56
2018-08-19T14:09:15.533Z,18.10
2018-08-19T14:11:46.708Z,19.38
2018-08-19T14:14:17.515Z,17.08
2018-08-19T14:16:48.287Z,16.47
2018-08-19T14:19:19.113Z,15.90
2018-08-19T14:21:49.881Z,16.94
2018-08-19T14:24:20.703Z,15.30
2018-08-19T14:26:51.470Z,16.21
2018-08-19T14:29:22.462Z,14.92
2018-08-19T14:31:53.258Z,13.56
2018-08-19T14:34:24.126Z,14.54
2018-08-19T14:36:54.965Z,14.03
2018-08-19T14:39:26.023Z,13.89
2018-08-19T14:41:56.794Z,13.98
2018-08-19T14:44:27.617Z,16.67
2018-08-19T14:46:58.386Z,18.36
2018-08-19T14:49:29.210Z,17.48
2018-08-19T14:52:02.332Z,18.85
2018-08-19T14:54:33.288Z,19.76
2018-08-19T14:57:04.173Z,20.72
2018-08-19T14:59:35.000Z,21.56
2018-08-19T15:02:05.829Z,22.43
2018-08-19T15:04:36.816Z,23.79
2018-08-19T15:07:07.642Z,22.49
2018-08-19T15:09:38.545Z,23.38
2018-08-19T15:12:15.851Z,23.93
2018-08-19T15:14:46.717Z,23.05
2018-08-19T15:17:17.534Z,24.31
2018-08-19T15:19:50.400Z,24.56
2018-08-19T15:22:21.783Z,24.68
2018-08-19T15:24:52.988Z,25.90
2018-08-19T15:27:30.762Z,24.31
2018-08-19T15:30:02.283Z,25.07
2018-08-19T15:32:33.435Z,25.23
2018-08-19T15:35:04.619Z,25.15
2018-08-19T15:37:35.447Z,24.27
2018-08-19T15:40:06.540Z,25.35
2018-08-19T15:42:37.735Z,25.16
2018-08-19T15:45:09.230Z,26.66
2018-08-19T15:47:41.017Z,25.86
2018-08-19T15:50:17.992Z,26.32
2018-08-19T15:52:49.691Z,26.73
2018-08-19T15:55:20.799Z,26.36
2018-08-19T15:57:52.406Z,27.73
2018-08-19T16:00:23.338Z,27.99
2018-08-19T16:02:55.442Z,27.93
2018-08-19T16:05:26.838Z,27.38
2018-08-19T16:07:57.690Z,27.96
2018-08-19T16:10:28.555Z,28.99
2018-08-19T16:12:59.475Z,28.11
2018-08-19T16:15:30.335Z,30.19
2018-08-19T16:18:01.324Z,29.69
2018-08-19T16:20:32.161Z,29.73
2018-08-19T16:23:02.997Z,28.89
2018-08-19T16:25:33.933Z,28.96
2018-08-19T16:28:04.809Z,29.47
2018-08-19T16:30:35.817Z,29.98
2018-08-19T16:33:06.614Z,30.82
2018-08-19T16:35:37.455Z,31.79
2018-08-19T16:38:08.251Z,32.57
2018-08-19T16:40:39.223Z,32.71
2018-08-19T16:43:10.049Z,32.51
2018-08-19T16:45:41.055Z,32.96
2018-08-19T16:48:12.310Z,33.03
2018-08-19T16:50:43.285Z,33.49
2018-08-19T16:53:14.228Z,33.68
2018-08-19T16:55:45.561Z,35.26
2018-08-19T16:58:16.362Z,35.71
2018-08-19T17:00:47.206Z,36.15
2018-08-19T17:03:31.583Z,34.46
2018-08-19T17:06:03.730Z,35.41
2018-08-19T17:08:34.547Z,35.74
2018-08-19T17:11:06.184Z,37.15
2018-08-19T17:13:37.011Z,36.88
2018-08-19T17:16:11.250Z,36.71
2018-08-19T17:18:42.088Z,38.31
2018-08-19T17:21:12.969Z,38.15
2018-08-19T17:23:43.974Z,38.43
2018-08-19T17:26:20.084Z,39.68
2018-08-19T17:28:51.286Z,39.96
2018-08-19T17:31:22.335Z,40.58
2018-08-19T17:33:53.223Z,40.45
2018-08-19T17:36:33.324Z,41.02
2018-08-19T17:39:05.221Z,44.26
2018-08-19T17:41:38.660Z,42.42
2018-08-19T17:44:09.451Z,42.00
2018-08-19T17:46:40.317Z,42.46
2018-08-19T17:49:19.094Z,44.17
2018-08-19T17:51:50.030Z,42.62
2018-08-19T17:54:25.849Z,42.80
2018-08-19T17:56:58.425Z,43.02
2018-08-19T17:59:29.417Z,43.48
2018-08-19T18:02:00.335Z,43.85
2018-08-19T18:04:38.482Z,45.03
2018-08-19T18:07:11.774Z,45.24
2018-08-19T18:09:47.634Z,46.08
2018-08-19T18:12:18.872Z,46.62
2018-08-19T18:14:49.770Z,46.94
2018-08-19T18:17:21.326Z,46.95
2018-08-19T18:19:52.233Z,46.64
2018-08-19T18:22:23.564Z,46.96
2018-08-19T18:25:01.400Z,47.39
2018-08-19T18:27:32.397Z,47.28
2018-08-19T18:30:03.290Z,47.93
2018-08-19T18:32:34.150Z,48.20
2018-08-19T18:35:05.252Z,47.99
2018-08-19T18:37:36.258Z,48.42
2018-08-19T18:40:07.267Z,48.08
2018-08-19T18:42:40.976Z,47.96
2018-08-19T18:45:13.189Z,48.11
2018-08-19T18:47:53.120Z,51.32
2018-08-19T18:50:25.473Z,51.21
2018-08-19T18:52:56.697Z,52.54
2018-08-19T18:55:27.505Z,51.36
2018-08-19T18:57:58.444Z,50.28
2018-08-19T19:00:30.196Z,49.86
2018-08-19T19:03:01.884Z,49.64
2018-08-19T19:05:37.455Z,49.74
2018-08-19T19:08:11.006Z,50.02
2018-08-19T19:10:50.565Z,50.64
2018-08-19T19:13:22.320Z,53.12
2018-08-19T19:15:53.182Z,52.78
2018-08-19T19:18:24.109Z,51.71
2018-08-19T19:21:00.531Z,51.69
2018-08-19T19:23:32.748Z,53.92
2018-08-19T19:26:05.282Z,54.16
2018-08-19T19:28:36.289Z,54.09
2018-08-19T19:31:12.377Z,54.14
2018-08-19T19:33:43.411Z,54.17
2018-08-19T19:36:18.545Z,53.83
2018-08-19T19:38:55.534Z,54.26
2018-08-19T19:41:28.568Z,54.80
2018-08-19T19:44:00.233Z,53.59
2018-08-19T19:46:31.332Z,54.45
2018-08-19T19:49:02.274Z,54.70
2018-08-19T19:51:33.052Z,55.00
2018-08-19T19:54:03.957Z,56.34
2018-08-19T19:56:35.005Z,58.66
2018-08-19T19:59:10.656Z,55.80
2018-08-19T20:01:46.440Z,56.50
2018-08-19T20:04:22.953Z,56.35
2018-08-19T20:06:58.870Z,58.42
2018-08-19T20:09:35.939Z,60.07
2018-08-19T20:12:16.988Z,60.00
2018-08-19T20:14:52.836Z,60.97
2018-08-19T20:17:28.603Z,61.80
2018-08-19T20:20:04.911Z,60.42
2018-08-19T20:22:40.736Z,60.51
2018-08-19T20:25:16.756Z,60.83
2018-08-19T20:27:56.595Z,61.38
2018-08-19T20:30:32.922Z,60.42
2018-08-19T20:33:17.245Z,60.51
2018-08-19T20:35:53.420Z,61.23
2018-08-19T20:38:29.482Z,61.26
2018-08-19T20:41:05.711Z,62.49
2018-08-19T20:43:41.628Z,61.86
2018-08-19T20:46:17.581Z,63.28
2018-08-19T20:48:53.350Z,63.75
2018-08-19T20:51:29.289Z,63.00
2018-08-19T20:54:05.108Z,64.12
2018-08-19T20:56:41.035Z,63.61
2018-08-19T20:59:22.630Z,64.10
2018-08-19T21:01:59.075Z,63.33
2018-08-19T21:04:34.960Z,63.96
2018-08-19T21:07:10.880Z,64.04
2018-08-19T21:09:46.818Z,64.50
2018-08-19T21:12:24.220Z,65.05
2018-08-19T21:15:04.477Z,65.71
2018-08-19T21:17:40.262Z,65.70
2018-08-19T21:20:16.181Z,65.61
2018-08-19T21:22:53.457Z,65.54
2018-08-19T21:25:29.214Z,67.99
2018-08-19T21:28:05.160Z,68.57
2018-08-19T21:30:41.136Z,68.14
2018-08-19T21:33:16.796Z,66.83
2018-08-19T21:35:55.869Z,66.16
2018-08-19T21:38:31.623Z,67.72
2018-08-19T21:41:07.383Z,67.53
2018-08-19T21:43:43.169Z,66.05
2018-08-19T21:46:19.029Z,66.39
2018-08-19T21:48:54.808Z,65.81
2018-08-19T21:51:30.548Z,65.38
2018-08-19T21:54:07.122Z,64.71
2018-08-19T21:56:43.031Z,63.79
2018-08-19T21:59:27.053Z,62.45
2018-08-19T22:02:02.830Z,63.66
2018-08-19T22:04:38.622Z,63.52
2018-08-19T22:07:14.555Z,63.40
2018-08-19T22:09:50.588Z,63.82
2018-08-19T22:12:26.460Z,64.45
2018-08-19T22:15:02.065Z,64.68
2018-08-19T22:17:37.812Z,65.99
2018-08-19T22:20:13.526Z,65.65
2018-08-19T22:22:50.349Z,66.57
2018-08-19T22:25:26.100Z,67.49
2018-08-19T22:28:02.088Z,66.81
2018-08-19T22:30:38.040Z,66.76
2018-08-19T22:33:13.963Z,65.71
2018-08-19T22:35:49.714Z,64.82
2018-08-19T22:38:31.571Z,64.31
2018-08-19T22:41:07.426Z,64.19
2018-08-19T22:43:43.177Z,63.78
2018-08-19T22:46:19.074Z,63.55
2018-08-19T22:48:55.964Z,64.02
2018-08-19T22:51:33.401Z,62.33
2018-08-19T22:54:09.270Z,62.73
2018-08-19T22:56:45.190Z,62.02
2018-08-19T22:59:20.912Z,61.99
2018-08-19T23:01:56.992Z,61.67
2018-08-19T23:04:32.845Z,60.99
2018-08-19T23:07:08.637Z,61.05
2018-08-19T23:09:44.457Z,62.14
2018-08-19T23:12:20.435Z,62.31
2018-08-19T23:15:06.862Z,64.53
2018-08-19T23:17:42.730Z,67.08
2018-08-19T23:20:18.482Z,68.32
2018-08-19T23:22:54.260Z,69.81
2018-08-19T23:25:30.026Z,70.69
2018-08-19T23:28:06.130Z,70.69
2018-08-19T23:30:41.730Z,70.01
2018-08-19T23:33:20.873Z,69.76
2018-08-19T23:35:56.722Z,69.62
2018-08-19T23:38:32.644Z,67.52
2018-08-19T23:41:08.396Z,67.08
2018-08-19T23:43:44.161Z,67.01
2018-08-19T23:46:20.061Z,66.07
2018-08-19T23:48:55.828Z,65.83
2018-08-19T23:51:32.161Z,65.47
2018-08-19T23:54:08.517Z,64.98
2018-08-19T23:56:44.436Z,64.74
2018-08-19T23:59:25.167Z,64.34
